createdAt,value
2022-12-15T00:04:59.631Z,-5.65
2022-12-15T00:10:19.801Z,-5.59
2022-12-15T00:15:39.966Z,-5.37
2022-12-15T00:21:01.544Z,-5.22
2022-12-15T00:26:22.337Z,-4.97
2022-12-15T00:31:42.378Z,-4.74
2022-12-15T00:37:04.026Z,-4.92
2022-12-15T00:42:06.958Z,-5.14
2022-12-15T00:47:09.684Z,-5.08
2022-12-15T00:52:32.012Z,-4.95
2022-12-15T00:57:52.591Z,-4.97
2022-12-15T01:03:12.778Z,-4.80
2022-12-15T01:08:34.231Z,-5.07
2022-12-15T01:13:54.823Z,-4.39
2022-12-15T01:19:15.459Z,-4.67
2022-12-15T01:24:19.575Z,-4.73
2022-12-15T01:29:24.306Z,-4.99
2022-12-15T01:34:29.985Z,-5.21
2022-12-15T01:39:48.007Z,-5.10
2022-12-15T01:44:52.754Z,-5.25
2022-12-15T01:49:56.130Z,-5.28
2022-12-15T01:55:00.528Z,-5.50
2022-12-15T02:00:08.322Z,-5.62
2022-12-15T02:05:11.588Z,-5.66
2022-12-15T02:10:15.861Z,-5.64
2022-12-15T02:15:22.606Z,-5.73
2022-12-15T02:20:41.285Z,-5.77
2022-12-15T02:26:01.423Z,-5.75
2022-12-15T02:31:26.817Z,-5.91
2022-12-15T02:36:36.699Z,-6.01
2022-12-15T02:41:42.862Z,-5.81
2022-12-15T02:47:05.892Z,-5.78
2022-12-15T02:52:22.410Z,-5.71
2022-12-15T02:57:32.931Z,-5.67
2022-12-15T03:02:41.300Z,-5.79
2022-12-15T03:07:45.010Z,-5.74
2022-12-15T03:12:54.408Z,-5.91
2022-12-15T03:17:58.605Z,-5.75
2022-12-15T03:23:01.870Z,-5.88
2022-12-15T03:28:04.763Z,-5.86
2022-12-15T03:33:08.861Z,-5.86
2022-12-15T03:38:11.679Z,-5.79
2022-12-15T03:43:14.396Z,-5.56
2022-12-15T03:48:18.571Z,-5.53
2022-12-15T03:53:21.429Z,-5.54
2022-12-15T03:58:24.633Z,-5.42
2022-12-15T04:03:29.666Z,-5.59
2022-12-15T04:08:32.929Z,-5.56
2022-12-15T04:13:35.699Z,-5.45
2022-12-15T04:18:39.823Z,-5.43
2022-12-15T04:23:59.864Z,-5.42
2022-12-15T04:29:19.998Z,-5.57
2022-12-15T04:34:43.223Z,-5.57
2022-12-15T04:40:07.882Z,-5.70
2022-12-15T04:45:29.666Z,-5.66
2022-12-15T04:50:51.249Z,-5.72
2022-12-15T04:56:16.513Z,-5.73
2022-12-15T05:01:38.864Z,-5.76
2022-12-15T05:07:00.360Z,-5.72
2022-12-15T05:12:20.678Z,-5.69
2022-12-15T05:17:41.874Z,-5.70
2022-12-15T05:23:03.334Z,-5.65
2022-12-15T05:28:25.534Z,-5.63
2022-12-15T05:33:28.689Z,-5.63
2022-12-15T05:38:33.116Z,-5.62
2022-12-15T05:43:35.898Z,-5.57
2022-12-15T05:48:39.104Z,-5.66
2022-12-15T05:53:43.756Z,-5.64
2022-12-15T05:58:46.570Z,-5.51
2022-12-15T06:03:49.856Z,-5.52
2022-12-15T06:09:18.322Z,-5.44
2022-12-15T06:14:31.286Z,-5.29
2022-12-15T06:19:35.821Z,-5.36
2022-12-15T06:24:57.409Z,-5.36
2022-12-15T06:30:12.090Z,-5.50
2022-12-15T06:35:15.362Z,-5.41
2022-12-15T06:40:24.599Z,-5.44
2022-12-15T06:45:27.910Z,-5.33
2022-12-15T06:50:35.677Z,-5.28
2022-12-15T06:55:51.208Z,-5.26
2022-12-15T07:01:19.002Z,-5.27
2022-12-15T07:06:39.554Z,-5.28
2022-12-15T07:12:18.615Z,-5.23
2022-12-15T07:17:21.428Z,-5.36
2022-12-15T07:22:25.313Z,-5.23
2022-12-15T07:27:29.644Z,-5.18
2022-12-15T07:32:32.468Z,-5.22
2022-12-15T07:37:36.978Z,-5.17
2022-12-15T07:42:41.328Z,-5.08
2022-12-15T07:47:44.169Z,-4.65
2022-12-15T07:52:47.477Z,-4.06
2022-12-15T07:57:51.670Z,-4.37
2022-12-15T08:02:57.638Z,-4.44
2022-12-15T08:08:00.797Z,-4.34
2022-12-15T08:13:04.942Z,-4.55
2022-12-15T08:18:09.038Z,-4.52
2022-12-15T08:23:11.844Z,-4.16
2022-12-15T08:28:16.519Z,-4.07
2022-12-15T08:33:19.291Z,-4.04
2022-12-15T08:38:22.111Z,-3.96
2022-12-15T08:43:35.585Z,-3.62
2022-12-15T08:48:38.469Z,-3.23
2022-12-15T08:53:41.564Z,-3.37
2022-12-15T08:58:46.555Z,-3.26
2022-12-15T09:03:50.757Z,-2.69
2022-12-15T09:08:56.688Z,-2.71
2022-12-15T09:14:01.094Z,-2.47
2022-12-15T09:19:04.488Z,-2.36
2022-12-15T09:24:07.760Z,-2.37
2022-12-15T09:29:14.290Z,-2.04
2022-12-15T09:34:17.066Z,-2.04
2022-12-15T09:39:21.282Z,-1.73
2022-12-15T09:44:27.333Z,-1.41
2022-12-15T09:49:53.270Z,-1.25
2022-12-15T09:54:56.783Z,-1.85
2022-12-15T10:00:11.469Z,-1.53
2022-12-15T10:05:38.120Z,-1.37
2022-12-15T10:10:55.609Z,-1.04
2022-12-15T10:16:04.182Z,-1.21
2022-12-15T10:21:14.102Z,-0.94
2022-12-15T10:26:21.521Z,-0.70
2022-12-15T10:31:35.987Z,-0.56
2022-12-15T10:36:38.867Z,-0.50
2022-12-15T10:41:41.629Z,-0.19
2022-12-15T10:46:46.288Z,0.25
2022-12-15T10:51:56.011Z,0.21
2022-12-15T10:57:01.763Z,0.49
2022-12-15T11:07:39.517Z,0.33
2022-12-15T11:13:01.697Z,-0.05
2022-12-15T11:18:11.252Z,-0.32
2022-12-15T11:23:22.401Z,0.07
2022-12-15T11:28:33.942Z,0.36
2022-12-15T11:33:38.931Z,0.20
2022-12-15T11:38:49.885Z,0.17
2022-12-15T11:44:10.941Z,0.03
2022-12-15T11:49:40.741Z,0.11
2022-12-15T11:54:54.842Z,0.15
2022-12-15T12:00:06.235Z,0.42
2022-12-15T12:05:38.910Z,0.84
2022-12-15T12:10:54.681Z,0.96
2022-12-15T12:16:18.580Z,0.90
2022-12-15T12:21:25.481Z,0.78
2022-12-15T12:26:36.669Z,0.88
2022-12-15T12:31:50.724Z,0.56
2022-12-15T12:36:56.240Z,0.95
2022-12-15T12:42:08.685Z,1.37
2022-12-15T12:47:18.403Z,1.28
2022-12-15T12:52:25.253Z,1.32
2022-12-15T12:57:37.114Z,1.28
2022-12-15T13:03:03.095Z,1.31
2022-12-15T13:08:45.718Z,1.45
2022-12-15T13:13:55.687Z,1.77
2022-12-15T13:19:05.213Z,1.55
2022-12-15T13:24:32.292Z,1.72
2022-12-15T13:29:56.783Z,1.36
2022-12-15T13:35:16.075Z,1.58
2022-12-15T13:40:34.931Z,1.86
2022-12-15T13:45:54.663Z,1.30
2022-12-15T13:51:04.383Z,1.34
2022-12-15T13:56:23.612Z,1.58
2022-12-15T14:01:32.607Z,1.42
2022-12-15T14:06:39.607Z,1.59
2022-12-15T14:11:53.937Z,1.67
2022-12-15T14:17:03.127Z,1.51
2022-12-15T14:22:26.722Z,1.61
2022-12-15T14:27:34.152Z,1.45
2022-12-15T14:32:40.198Z,1.25
2022-12-15T14:37:43.755Z,1.16
2022-12-15T14:42:47.944Z,1.16
2022-12-15T14:48:30.353Z,1.03
2022-12-15T14:53:23.974Z,1.36
2022-12-15T14:58:33.405Z,1.30
2022-12-15T15:03:40.044Z,1.42
2022-12-15T15:08:47.433Z,1.38
2022-12-15T15:13:55.979Z,1.17
2022-12-15T15:19:04.476Z,1.17
2022-12-15T15:24:24.856Z,1.09
2022-12-15T15:29:39.724Z,1.26
2022-12-15T15:34:44.949Z,0.92
2022-12-15T15:39:49.815Z,1.09
2022-12-15T15:44:54.773Z,0.93
2022-12-15T15:50:00.947Z,1.03
2022-12-15T15:55:03.895Z,1.11
2022-12-15T16:00:21.404Z,1.15
2022-12-15T16:05:26.897Z,0.99
2022-12-15T16:10:30.262Z,1.00
2022-12-15T16:15:33.267Z,1.02
2022-12-15T16:20:38.465Z,1.16
2022-12-15T16:25:50.316Z,0.87
2022-12-15T16:30:54.127Z,0.88
2022-12-15T16:35:58.975Z,0.75
2022-12-15T16:41:08.123Z,0.65
2022-12-15T16:46:12.635Z,0.77
2022-12-15T16:51:28.133Z,0.54
2022-12-15T16:56:31.098Z,0.57
2022-12-15T17:01:39.698Z,0.59
2022-12-15T17:06:45.482Z,0.38
2022-12-15T17:11:52.114Z,0.14
2022-12-15T17:16:54.940Z,0.10
2022-12-15T17:21:59.134Z,0.18
2022-12-15T17:27:06.582Z,0.33
2022-12-15T17:32:13.546Z,0.31
2022-12-15T17:37:18.068Z,0.29
2022-12-15T17:42:22.497Z,0.63
2022-12-15T17:47:25.487Z,0.69
2022-12-15T17:52:34.335Z,0.62
2022-12-15T17:57:37.309Z,0.73
2022-12-15T18:02:40.297Z,0.77
2022-12-15T18:07:45.029Z,0.47
2022-12-15T18:12:47.917Z,0.55
2022-12-15T18:17:51.250Z,0.58
2022-12-15T18:22:55.481Z,0.45
2022-12-15T18:27:59.308Z,0.29
2022-12-15T18:33:02.186Z,0.35
2022-12-15T18:38:15.316Z,0.29
2022-12-15T18:43:19.725Z,0.25
2022-12-15T18:48:24.583Z,-0.06
2022-12-15T18:53:31.397Z,-0.17
2022-12-15T18:58:36.576Z,0.00
2022-12-15T19:03:41.022Z,0.13
2022-12-15T19:08:45.313Z,0.10
2022-12-15T19:13:48.137Z,0.36
2022-12-15T19:19:11.296Z,0.51
2022-12-15T19:24:45.157Z,0.51
2022-12-15T19:29:48.536Z,0.79
2022-12-15T19:34:51.407Z,0.76
2022-12-15T19:39:57.856Z,0.89
2022-12-15T19:45:01.425Z,0.78
2022-12-15T19:50:04.629Z,0.78
2022-12-15T19:55:15.090Z,0.70
2022-12-15T20:00:21.739Z,0.68
2022-12-15T20:05:25.832Z,0.80
2022-12-15T20:10:32.486Z,0.88
2022-12-15T20:15:35.462Z,0.67
2022-12-15T20:20:39.165Z,0.61
2022-12-15T20:25:44.056Z,0.50
2022-12-15T20:30:47.543Z,0.77
2022-12-15T20:35:51.367Z,0.58
2022-12-15T20:40:56.496Z,0.66
2022-12-15T20:46:04.023Z,0.71
2022-12-15T20:51:09.778Z,0.77
2022-12-15T20:56:14.729Z,0.47
2022-12-15T21:01:23.465Z,0.21
2022-12-15T21:06:27.476Z,0.10
2022-12-15T21:11:34.056Z,0.35
2022-12-15T21:16:36.921Z,0.25
2022-12-15T21:21:43.045Z,0.34
2022-12-15T21:26:47.688Z,0.16
2022-12-15T21:31:51.065Z,-0.21
2022-12-15T21:36:55.093Z,-0.43
2022-12-15T21:42:02.640Z,-0.32
2022-12-15T21:47:22.120Z,-0.35
2022-12-15T21:52:28.333Z,-0.53
2022-12-15T21:57:32.494Z,-0.73
2022-12-15T22:02:35.277Z,-0.86
2022-12-15T22:07:38.152Z,-0.96
2022-12-15T22:12:44.961Z,-1.09
2022-12-15T22:17:48.085Z,-1.19
2022-12-15T22:22:51.667Z,-1.22
2022-12-15T22:27:55.859Z,-1.03
2022-12-15T22:32:58.743Z,-0.93
2022-12-15T22:38:01.799Z,-1.19
2022-12-15T22:43:15.586Z,-1.21
2022-12-15T22:48:20.363Z,-1.01
2022-12-15T22:53:23.971Z,-0.91
2022-12-15T22:58:33.417Z,-0.94
2022-12-15T23:03:36.620Z,-1.04
2022-12-15T23:08:39.477Z,-0.89
2022-12-15T23:13:43.797Z,-0.77
2022-12-15T23:18:46.984Z,-0.53
2022-12-15T23:23:50.134Z,-0.46
2022-12-15T23:28:55.459Z,-0.47
2022-12-15T23:33:58.359Z,-0.33
2022-12-15T23:39:01.254Z,-0.13
2022-12-15T23:44:07.705Z,-0.21
2022-12-15T23:49:11.159Z,-0.36
2022-12-15T23:54:14.172Z,-0.42
2022-12-15T23:59:18.593Z,-0.53
